sensor_id;sensor_type;location;lat;lon;timestamp;pressure;altitude;pressure_sealevel;temperature;humidity
35553;BME280;21656;46.054;13.614;2023-02-22T08:46:52;100830.00;;;10.64;100.00
35553;BME280;21656;46.054;13.614;2023-02-22T08:49:17;100841.63;;;10.65;100.00
35553;BME280;21656;46.054;13.614;2023-02-22T08:51:44;100843.50;;;10.75;100.00
35553;BME280;21656;46.054;13.614;2023-02-22T08:54:10;100832.81;;;10.87;100.00
35553;BME280;21656;46.054;13.614;2023-02-22T08:56:35;100843.09;;;10.93;100.00
35553;BME280;21656;46.054;13.614;2023-02-22T08:59:00;100841.19;;;11.06;100.00
35553;BME280;21656;46.054;13.614;2023-02-22T09:01:25;100842.84;;;11.20;100.00
35553;BME280;21656;46.054;13.614;2023-02-22T09:03:53;100844.56;;;11.21;100.00
35553;BME280;21656;46.054;13.614;2023-02-22T09:06:20;100847.16;;;11.34;100.00
35553;BME280;21656;46.054;13.614;2023-02-22T09:08:46;100850.25;;;11.40;99.67
35553;BME280;21656;46.054;13.614;2023-02-22T09:11:11;100848.16;;;11.33;98.61
35553;BME280;21656;46.054;13.614;2023-02-22T09:13:36;100845.13;;;11.37;100.00
35553;BME280;21656;46.054;13.614;2023-02-22T09:16:02;100845.53;;;11.55;100.00
35553;BME280;21656;46.054;13.614;2023-02-22T09:18:27;100838.41;;;11.65;98.06
35553;BME280;21656;46.054;13.614;2023-02-22T09:20:53;100835.53;;;11.91;98.59
35553;BME280;21656;46.054;13.614;2023-02-22T09:23:19;100841.03;;;12.12;95.99
35553;BME280;21656;46.054;13.614;2023-02-22T09:25:45;100841.16;;;12.22;90.73
35553;BME280;21656;46.054;13.614;2023-02-22T09:28:12;100834.16;;;12.30;90.32
35553;BME280;21656;46.054;13.614;2023-02-22T09:30:38;100831.69;;;12.27;91.96
35553;BME280;21656;46.054;13.614;2023-02-22T09:33:14;100829.75;;;12.29;91.53
35553;BME280;21656;46.054;13.614;2023-02-22T09:35:39;100831.06;;;12.35;92.06
35553;BME280;21656;46.054;13.614;2023-02-22T09:38:11;100826.91;;;12.42;92.88
35553;BME280;21656;46.054;13.614;2023-02-22T09:40:38;100828.47;;;12.45;91.53
35553;BME280;21656;46.054;13.614;2023-02-22T09:43:26;100831.25;;;12.66;91.03
35553;BME280;21656;46.054;13.614;2023-02-22T09:48:20;100823.88;;;12.79;86.93
35553;BME280;21656;46.054;13.614;2023-02-22T09:50:46;100825.56;;;12.80;86.75
35553;BME280;21656;46.054;13.614;2023-02-22T09:55:43;100815.94;;;12.66;88.11
35553;BME280;21656;46.054;13.614;2023-02-22T09:58:15;100822.66;;;12.72;88.84
35553;BME280;21656;46.054;13.614;2023-02-22T10:00:43;100806.19;;;12.75;88.63
35553;BME280;21656;46.054;13.614;2023-02-22T10:03:16;100813.16;;;12.77;87.53
35553;BME280;21656;46.054;13.614;2023-02-22T10:05:43;100795.06;;;12.89;87.82
35553;BME280;21656;46.054;13.614;2023-02-22T10:08:11;100803.78;;;12.93;85.07
35553;BME280;21656;46.054;13.614;2023-02-22T10:10:38;100800.81;;;12.96;86.41
35553;BME280;21656;46.054;13.614;2023-02-22T10:13:07;100794.03;;;13.01;85.76
35553;BME280;21656;46.054;13.614;2023-02-22T10:18:36;100802.38;;;13.31;84.95
35553;BME280;21656;46.054;13.614;2023-02-22T10:24:08;100792.09;;;13.76;78.91
35553;BME280;21656;46.054;13.614;2023-02-22T10:26:40;100788.19;;;14.00;79.30
35553;BME280;21656;46.054;13.614;2023-02-22T10:31:38;100782.84;;;14.60;75.03
35553;BME280;21656;46.054;13.614;2023-02-22T10:34:10;100775.44;;;14.81;73.15
35553;BME280;21656;46.054;13.614;2023-02-22T10:36:37;100781.13;;;14.98;71.91
35553;BME280;21656;46.054;13.614;2023-02-22T10:39:21;100771.84;;;15.20;69.06
35553;BME280;21656;46.054;13.614;2023-02-22T10:41:50;100771.00;;;15.09;66.33
35553;BME280;21656;46.054;13.614;2023-02-22T10:44:19;100773.00;;;15.17;66.73
35553;BME280;21656;46.054;13.614;2023-02-22T10:46:45;100766.38;;;15.39;66.21
35553;BME280;21656;46.054;13.614;2023-02-22T10:49:11;100761.94;;;15.48;64.13
35553;BME280;21656;46.054;13.614;2023-02-22T10:51:42;100756.63;;;15.46;65.42
35553;BME280;21656;46.054;13.614;2023-02-22T10:56:56;100757.31;;;15.58;61.26
35553;BME280;21656;46.054;13.614;2023-02-22T10:59:35;100752.41;;;15.81;60.59
35553;BME280;21656;46.054;13.614;2023-02-22T11:02:35;100751.31;;;16.01;59.14
35553;BME280;21656;46.054;13.614;2023-02-22T11:04:54;100748.50;;;15.93;58.74
35553;BME280;21656;46.054;13.614;2023-02-22T11:12:18;100733.31;;;15.73;60.23
35553;BME280;21656;46.054;13.614;2023-02-22T11:14:44;100724.00;;;15.75;60.09
35553;BME280;21656;46.054;13.614;2023-02-22T11:17:09;100723.25;;;15.83;60.96
35553;BME280;21656;46.054;13.614;2023-02-22T11:19:38;100716.13;;;16.00;59.50
35553;BME280;21656;46.054;13.614;2023-02-22T11:22:10;100719.63;;;15.92;60.70
35553;BME280;21656;46.054;13.614;2023-02-22T11:24:48;100706.97;;;15.83;60.36
35553;BME280;21656;46.054;13.614;2023-02-22T11:27:25;100710.13;;;15.31;60.56
35553;BME280;21656;46.054;13.614;2023-02-22T11:29:51;100699.25;;;15.41;62.51
35553;BME280;21656;46.054;13.614;2023-02-22T11:32:17;100697.31;;;15.61;61.64
35553;BME280;21656;46.054;13.614;2023-02-22T11:34:45;100695.38;;;15.81;61.19
35553;BME280;21656;46.054;13.614;2023-02-22T11:40:35;100690.28;;;15.78;59.69
35553;BME280;21656;46.054;13.614;2023-02-22T11:42:36;100677.59;;;15.59;58.53
35553;BME280;21656;46.054;13.614;2023-02-22T11:47:49;100677.28;;;15.34;59.72
35553;BME280;21656;46.054;13.614;2023-02-22T11:52:54;100673.72;;;15.61;60.30
35553;BME280;21656;46.054;13.614;2023-02-22T11:55:37;100671.09;;;15.79;59.89
35553;BME280;21656;46.054;13.614;2023-02-22T12:00:49;100660.72;;;16.20;57.25
35553;BME280;21656;46.054;13.614;2023-02-22T12:03:36;100657.47;;;16.61;57.47
35553;BME280;21656;46.054;13.614;2023-02-22T12:08:41;100655.03;;;17.46;54.11
35553;BME280;21656;46.054;13.614;2023-02-22T12:11:15;100645.78;;;17.73;53.61
35553;BME280;21656;46.054;13.614;2023-02-22T12:14:00;100637.69;;;17.97;53.13
35553;BME280;21656;46.054;13.614;2023-02-22T12:19:10;100644.84;;;17.48;52.59
35553;BME280;21656;46.054;13.614;2023-02-22T12:21:40;100642.84;;;17.58;53.03
35553;BME280;21656;46.054;13.614;2023-02-22T12:24:08;100633.19;;;17.72;53.79
35553;BME280;21656;46.054;13.614;2023-02-22T12:26:42;100636.72;;;18.15;53.06
35553;BME280;21656;46.054;13.614;2023-02-22T12:29:28;100638.28;;;18.50;52.05
35553;BME280;21656;46.054;13.614;2023-02-22T12:32:06;100631.66;;;18.86;51.47
35553;BME280;21656;46.054;13.614;2023-02-22T12:34:38;100634.25;;;18.79;49.87
35553;BME280;21656;46.054;13.614;2023-02-22T12:42:17;100617.66;;;18.72;50.30
35553;BME280;21656;46.054;13.614;2023-02-22T12:44:45;100613.59;;;18.84;49.28
35553;BME280;21656;46.054;13.614;2023-02-22T12:47:17;100609.16;;;18.59;50.63
35553;BME280;21656;46.054;13.614;2023-02-22T12:49:54;100603.56;;;18.77;50.23
35553;BME280;21656;46.054;13.614;2023-02-22T13:02:57;100597.38;;;18.91;50.05
35553;BME280;21656;46.054;13.614;2023-02-22T13:05:24;100591.56;;;19.02;50.13
35553;BME280;21656;46.054;13.614;2023-02-22T13:10:30;100584.72;;;19.54;48.87
35553;BME280;21656;46.054;13.614;2023-02-22T13:23:13;100573.97;;;19.13;48.12
35553;BME280;21656;46.054;13.614;2023-02-22T13:25:45;100577.94;;;18.94;48.75
35553;BME280;21656;46.054;13.614;2023-02-22T13:30:50;100572.34;;;18.47;49.54
35553;BME280;21656;46.054;13.614;2023-02-22T13:33:31;100575.41;;;18.35;51.15
35553;BME280;21656;46.054;13.614;2023-02-22T13:41:04;100571.81;;;17.43;54.83
35553;BME280;21656;46.054;13.614;2023-02-22T13:46:13;100566.09;;;17.12;55.59
35553;BME280;21656;46.054;13.614;2023-02-22T13:48:50;100564.13;;;16.96;56.45
35553;BME280;21656;46.054;13.614;2023-02-22T13:54:06;100569.41;;;16.72;56.25
35553;BME280;21656;46.054;13.614;2023-02-22T13:56:33;100559.78;;;16.59;56.61
35553;BME280;21656;46.054;13.614;2023-02-22T13:59:02;100558.25;;;16.57;57.63
35553;BME280;21656;46.054;13.614;2023-02-22T14:01:39;100557.31;;;16.48;57.13
35553;BME280;21656;46.054;13.614;2023-02-22T14:06:45;100561.53;;;16.42;57.65
35553;BME280;21656;46.054;13.614;2023-02-22T14:09:41;100562.78;;;16.30;57.46
35553;BME280;21656;46.054;13.614;2023-02-22T14:11:58;100556.53;;;16.12;58.08
35553;BME280;21656;46.054;13.614;2023-02-22T14:14:24;100565.59;;;15.85;57.58
35553;BME280;21656;46.054;13.614;2023-02-22T14:19:33;100552.75;;;15.59;58.93
35553;BME280;21656;46.054;13.614;2023-02-22T14:22:00;100552.66;;;15.51;59.64
35553;BME280;21656;46.054;13.614;2023-02-22T14:24:26;100562.03;;;15.56;60.08
35553;BME280;21656;46.054;13.614;2023-02-22T14:26:59;100557.72;;;15.64;60.33
35553;BME280;21656;46.054;13.614;2023-02-22T14:29:25;100550.84;;;15.69;59.73
35553;BME280;21656;46.054;13.614;2023-02-22T14:34:16;100548.72;;;15.63;59.90
35553;BME280;21656;46.054;13.614;2023-02-22T14:39:33;100549.28;;;15.39;59.63
35553;BME280;21656;46.054;13.614;2023-02-22T14:45:13;100558.00;;;15.43;60.31
35553;BME280;21656;46.054;13.614;2023-02-22T14:47:37;100546.97;;;15.44;60.97
35553;BME280;21656;46.054;13.614;2023-02-22T14:50:24;100549.28;;;15.39;60.89
35553;BME280;21656;46.054;13.614;2023-02-22T14:53:00;100551.38;;;15.27;60.92
35553;BME280;21656;46.054;13.614;2023-02-22T14:55:28;100553.13;;;15.18;60.83
35553;BME280;21656;46.054;13.614;2023-02-22T14:58:08;100544.13;;;15.18;61.28
35553;BME280;21656;46.054;13.614;2023-02-22T15:00:39;100555.19;;;15.07;60.50
35553;BME280;21656;46.054;13.614;2023-02-22T15:03:10;100542.50;;;14.98;60.74
35553;BME280;21656;46.054;13.614;2023-02-22T15:05:41;100543.53;;;14.97;61.70
35553;BME280;21656;46.054;13.614;2023-02-22T15:08:07;100548.38;;;14.93;62.46
35553;BME280;21656;46.054;13.614;2023-02-22T15:10:40;100544.97;;;14.91;63.13
35553;BME280;21656;46.054;13.614;2023-02-22T15:13:13;100554.72;;;14.84;62.73
35553;BME280;21656;46.054;13.614;2023-02-22T15:15:42;100554.00;;;14.82;63.96
35553;BME280;21656;46.054;13.614;2023-02-22T15:18:19;100552.03;;;14.74;64.00
35553;BME280;21656;46.054;13.614;2023-02-22T15:20:46;100562.47;;;14.69;64.19
35553;BME280;21656;46.054;13.614;2023-02-22T15:23:13;100551.63;;;14.59;64.47
35553;BME280;21656;46.054;13.614;2023-02-22T15:25:39;100554.66;;;14.56;64.46
35553;BME280;21656;46.054;13.614;2023-02-22T15:28:06;100555.19;;;14.50;65.58
35553;BME280;21656;46.054;13.614;2023-02-22T15:30:33;100550.06;;;14.47;65.83
35553;BME280;21656;46.054;13.614;2023-02-22T15:33:12;100553.63;;;14.38;66.35
35553;BME280;21656;46.054;13.614;2023-02-22T15:35:38;100556.19;;;14.39;67.27
35553;BME280;21656;46.054;13.614;2023-02-22T15:38:05;100544.81;;;14.36;67.96
35553;BME280;21656;46.054;13.614;2023-02-22T15:40:31;100541.53;;;14.32;70.42
35553;BME280;21656;46.054;13.614;2023-02-22T15:42:58;100544.09;;;14.24;70.11
35553;BME280;21656;46.054;13.614;2023-02-22T15:45:24;100542.97;;;14.17;69.84
35553;BME280;21656;46.054;13.614;2023-02-22T15:47:50;100544.66;;;14.18;71.00
35553;BME280;21656;46.054;13.614;2023-02-22T15:55:29;100540.13;;;13.99;71.99
35553;BME280;21656;46.054;13.614;2023-02-22T15:57:56;100543.00;;;13.87;73.33
35553;BME280;21656;46.054;13.614;2023-02-22T16:00:24;100544.25;;;13.74;74.45
35553;BME280;21656;46.054;13.614;2023-02-22T16:02:57;100545.38;;;13.71;74.04
35553;BME280;21656;46.054;13.614;2023-02-22T16:05:27;100540.13;;;13.60;75.54
35553;BME280;21656;46.054;13.614;2023-02-22T16:07:55;100544.50;;;13.51;76.84
35553;BME280;21656;46.054;13.614;2023-02-22T16:12:47;100541.75;;;13.32;79.73
35553;BME280;21656;46.054;13.614;2023-02-22T16:15:16;100554.22;;;13.23;78.99
35553;BME280;21656;46.054;13.614;2023-02-22T16:17:42;100546.09;;;13.23;78.95
35553;BME280;21656;46.054;13.614;2023-02-22T16:22:36;100548.25;;;13.19;81.54
35553;BME280;21656;46.054;13.614;2023-02-22T16:25:12;100547.94;;;13.13;81.69
35553;BME280;21656;46.054;13.614;2023-02-22T16:27:51;100559.16;;;13.08;82.52
35553;BME280;21656;46.054;13.614;2023-02-22T16:32:44;100562.31;;;12.83;86.74
35553;BME280;21656;46.054;13.614;2023-02-22T16:35:10;100572.22;;;12.72;87.25
35553;BME280;21656;46.054;13.614;2023-02-22T16:37:46;100568.59;;;12.62;89.74
35553;BME280;21656;46.054;13.614;2023-02-22T16:40:20;100565.66;;;12.44;92.38
35553;BME280;21656;46.054;13.614;2023-02-22T16:42:46;100573.22;;;12.29;94.39
35553;BME280;21656;46.054;13.614;2023-02-22T16:45:15;100576.09;;;12.17;96.48
35553;BME280;21656;46.054;13.614;2023-02-22T16:47:40;100575.06;;;12.08;97.81
35553;BME280;21656;46.054;13.614;2023-02-22T16:50:06;100576.09;;;11.96;98.95
35553;BME280;21656;46.054;13.614;2023-02-22T16:52:31;100582.31;;;11.85;100.00
35553;BME280;21656;46.054;13.614;2023-02-22T16:54:56;100585.91;;;11.74;100.00
35553;BME280;21656;46.054;13.614;2023-02-22T16:57:22;100581.16;;;11.66;100.00
35553;BME280;21656;46.054;13.614;2023-02-22T16:59:48;100587.44;;;11.56;100.00
35553;BME280;21656;46.054;13.614;2023-02-22T17:02:16;100591.50;;;11.50;100.00
35553;BME280;21656;46.054;13.614;2023-02-22T17:04:42;100587.72;;;11.41;100.00
35553;BME280;21656;46.054;13.614;2023-02-22T17:07:19;100598.53;;;11.30;100.00
35553;BME280;21656;46.054;13.614;2023-02-22T17:09:47;100601.22;;;11.19;100.00
35553;BME280;21656;46.054;13.614;2023-02-22T17:12:15;100595.84;;;11.07;100.00
35553;BME280;21656;46.054;13.614;2023-02-22T17:14:40;100600.84;;;11.01;100.00
35553;BME280;21656;46.054;13.614;2023-02-22T17:17:09;100611.75;;;10.88;100.00
35553;BME280;21656;46.054;13.614;2023-02-22T17:19:35;100607.94;;;10.79;100.00
35553;BME280;21656;46.054;13.614;2023-02-22T17:22:01;100611.25;;;10.72;100.00
35553;BME280;21656;46.054;13.614;2023-02-22T17:24:30;100616.22;;;10.65;100.00
35553;BME280;21656;46.054;13.614;2023-02-22T17:26:55;100614.38;;;10.54;100.00
35553;BME280;21656;46.054;13.614;2023-02-22T17:29:23;100625.75;;;10.47;100.00
35553;BME280;21656;46.054;13.614;2023-02-22T17:31:48;100622.66;;;10.40;100.00
35553;BME280;21656;46.054;13.614;2023-02-22T17:34:14;100617.09;;;10.30;100.00
35553;BME280;21656;46.054;13.614;2023-02-22T17:36:40;100629.72;;;10.30;100.00
35553;BME280;21656;46.054;13.614;2023-02-22T17:39:06;100626.72;;;10.22;100.00
35553;BME280;21656;46.054;13.614;2023-02-22T17:41:34;100623.25;;;10.08;100.00
35553;BME280;21656;46.054;13.614;2023-02-22T17:43:59;100635.34;;;10.03;100.00
35553;BME280;21656;46.054;13.614;2023-02-22T17:46:25;100628.22;;;10.02;100.00
35553;BME280;21656;46.054;13.614;2023-02-22T17:48:50;100631.72;;;9.91;100.00
35553;BME280;21656;46.054;13.614;2023-02-22T17:51:19;100634.22;;;9.81;100.00
35553;BME280;21656;46.054;13.614;2023-02-22T17:53:44;100636.63;;;9.73;100.00
35553;BME280;21656;46.054;13.614;2023-02-22T17:56:11;100635.66;;;9.74;100.00
35553;BME280;21656;46.054;13.614;2023-02-22T17:58:38;100635.41;;;9.77;100.00
35553;BME280;21656;46.054;13.614;2023-02-22T18:01:03;100639.31;;;9.73;100.00
35553;BME280;21656;46.054;13.614;2023-02-22T18:03:29;100644.56;;;9.74;100.00
35553;BME280;21656;46.054;13.614;2023-02-22T18:05:56;100647.09;;;9.65;100.00
35553;BME280;21656;46.054;13.614;2023-02-22T18:08:22;100642.59;;;9.65;100.00
35553;BME280;21656;46.054;13.614;2023-02-22T18:10:49;100637.75;;;9.58;100.00
35553;BME280;21656;46.054;13.614;2023-02-22T18:13:20;100642.38;;;9.55;100.00
35553;BME280;21656;46.054;13.614;2023-02-22T18:15:46;100640.06;;;9.38;100.00
35553;BME280;21656;46.054;13.614;2023-02-22T18:18:13;100632.00;;;9.38;100.00
35553;BME280;21656;46.054;13.614;2023-02-22T18:20:43;100634.38;;;9.30;100.00
35553;BME280;21656;46.054;13.614;2023-02-22T18:23:15;100639.97;;;9.27;100.00
35553;BME280;21656;46.054;13.614;2023-02-22T18:25:50;100639.47;;;9.22;100.00
35553;BME280;21656;46.054;13.614;2023-02-22T18:28:17;100635.25;;;9.18;100.00
35553;BME280;21656;46.054;13.614;2023-02-22T18:30:42;100636.97;;;9.19;100.00
35553;BME280;21656;46.054;13.614;2023-02-22T18:33:08;100634.19;;;9.20;100.00
35553;BME280;21656;46.054;13.614;2023-02-22T18:35:36;100642.00;;;9.23;100.00
35553;BME280;21656;46.054;13.614;2023-02-22T18:38:01;100631.06;;;9.14;100.00
35553;BME280;21656;46.054;13.614;2023-02-22T18:40:27;100639.97;;;9.01;100.00
35553;BME280;21656;46.054;13.614;2023-02-22T18:42:52;100640.88;;;9.02;100.00
35553;BME280;21656;46.054;13.614;2023-02-22T18:45:18;100640.44;;;8.95;100.00
35553;BME280;21656;46.054;13.614;2023-02-22T18:47:44;100633.44;;;9.05;100.00
35553;BME280;21656;46.054;13.614;2023-02-22T18:50:10;100636.03;;;8.94;100.00
35553;BME280;21656;46.054;13.614;2023-02-22T18:52:37;100639.81;;;8.92;100.00
35553;BME280;21656;46.054;13.614;2023-02-22T18:55:27;100627.97;;;8.94;100.00
35553;BME280;21656;46.054;13.614;2023-02-22T18:57:53;100626.91;;;8.97;100.00
35553;BME280;21656;46.054;13.614;2023-02-22T19:00:19;100630.97;;;8.89;100.00
35553;BME280;21656;46.054;13.614;2023-02-22T19:02:53;100635.81;;;8.84;100.00
35553;BME280;21656;46.054;13.614;2023-02-22T19:05:19;100632.81;;;8.76;100.00
35553;BME280;21656;46.054;13.614;2023-02-22T19:07:44;100628.53;;;8.74;100.00
35553;BME280;21656;46.054;13.614;2023-02-22T19:10:10;100624.63;;;8.65;100.00
35553;BME280;21656;46.054;13.614;2023-02-22T19:12:35;100626.47;;;8.64;100.00
35553;BME280;21656;46.054;13.614;2023-02-22T19:15:00;100624.63;;;8.65;100.00
35553;BME280;21656;46.054;13.614;2023-02-22T19:17:26;100623.00;;;8.62;100.00
35553;BME280;21656;46.054;13.614;2023-02-22T19:19:52;100631.06;;;8.62;100.00
35553;BME280;21656;46.054;13.614;2023-02-22T19:22:18;100626.56;;;8.63;100.00
35553;BME280;21656;46.054;13.614;2023-02-22T19:24:43;100630.97;;;8.64;100.00
35553;BME280;21656;46.054;13.614;2023-02-22T19:27:09;100632.91;;;8.75;100.00
35553;BME280;21656;46.054;13.614;2023-02-22T19:29:36;100628.53;;;8.74;100.00
35553;BME280;21656;46.054;13.614;2023-02-22T19:32:03;100633.22;;;8.70;100.00
35553;BME280;21656;46.054;13.614;2023-02-22T19:34:29;100633.44;;;8.54;100.00
35553;BME280;21656;46.054;13.614;2023-02-22T19:36:55;100628.81;;;8.56;100.00
35553;BME280;21656;46.054;13.614;2023-02-22T19:39:25;100636.44;;;8.50;100.00
35553;BME280;21656;46.054;13.614;2023-02-22T19:41:51;100631.28;;;8.46;100.00
35553;BME280;21656;46.054;13.614;2023-02-22T19:44:17;100629.13;;;8.52;100.00
35553;BME280;21656;46.054;13.614;2023-02-22T19:46:42;100629.16;;;8.24;100.00
35553;BME280;21656;46.054;13.614;2023-02-22T19:49:08;100624.53;;;8.27;100.00
35553;BME280;21656;46.054;13.614;2023-02-22T19:51:34;100625.63;;;8.24;100.00
35553;BME280;21656;46.054;13.614;2023-02-22T19:54:00;100634.78;;;8.07;100.00
35553;BME280;21656;46.054;13.614;2023-02-22T19:56:29;100639.09;;;8.10;100.00
35553;BME280;21656;46.054;13.614;2023-02-22T19:58:56;100636.91;;;8.02;100.00
35553;BME280;21656;46.054;13.614;2023-02-22T20:01:23;100631.75;;;7.99;100.00
35553;BME280;21656;46.054;13.614;2023-02-22T20:03:58;100631.00;;;7.97;100.00
35553;BME280;21656;46.054;13.614;2023-02-22T20:06:24;100631.97;;;7.96;100.00
35553;BME280;21656;46.054;13.614;2023-02-22T20:08:52;100633.78;;;7.95;100.00
35553;BME280;21656;46.054;13.614;2023-02-22T20:11:17;100631.84;;;7.97;100.00
35553;BME280;21656;46.054;13.614;2023-02-22T20:13:42;100630.06;;;7.98;100.00
35553;BME280;21656;46.054;13.614;2023-02-22T20:16:08;100629.00;;;8.00;100.00
35553;BME280;21656;46.054;13.614;2023-02-22T20:18:40;100631.72;;;7.86;100.00
35553;BME280;21656;46.054;13.614;2023-02-22T20:21:07;100641.03;;;7.80;100.00
35553;BME280;21656;46.054;13.614;2023-02-22T20:23:33;100640.50;;;7.61;100.00
35553;BME280;21656;46.054;13.614;2023-02-22T20:25:58;100648.47;;;7.48;100.00
35553;BME280;21656;46.054;13.614;2023-02-22T20:28:24;100639.16;;;7.54;100.00
35553;BME280;21656;46.054;13.614;2023-02-22T20:30:50;100641.41;;;7.47;100.00
35553;BME280;21656;46.054;13.614;2023-02-22T20:33:18;100638.41;;;7.52;100.00
35553;BME280;21656;46.054;13.614;2023-02-22T20:35:44;100643.59;;;7.41;100.00
35553;BME280;21656;46.054;13.614;2023-02-22T20:38:10;100645.13;;;7.30;100.00
35553;BME280;21656;46.054;13.614;2023-02-22T20:40:38;100647.06;;;7.28;100.00
35553;BME280;21656;46.054;13.614;2023-02-22T20:43:05;100642.81;;;7.38;100.00
35553;BME280;21656;46.054;13.614;2023-02-22T20:45:30;100640.91;;;7.41;100.00
35553;BME280;21656;46.054;13.614;2023-02-22T20:47:56;100646.84;;;7.46;100.00
35553;BME280;21656;46.054;13.614;2023-02-22T20:50:21;100642.81;;;7.38;100.00
35553;BME280;21656;46.054;13.614;2023-02-22T20:52:46;100639.38;;;7.36;100.00
35553;BME280;21656;46.054;13.614;2023-02-22T20:55:11;100637.47;;;7.38;100.00
35553;BME280;21656;46.054;13.614;2023-02-22T20:57:38;100638.81;;;7.31;100.00
35553;BME280;21656;46.054;13.614;2023-02-22T21:00:04;100644.38;;;7.14;100.00
35553;BME280;21656;46.054;13.614;2023-02-22T21:02:34;100643.41;;;7.01;100.00
35553;BME280;21656;46.054;13.614;2023-02-22T21:04:59;100634.25;;;6.90;100.00
35553;BME280;21656;46.054;13.614;2023-02-22T21:07:24;100634.53;;;6.86;100.00
35553;BME280;21656;46.054;13.614;2023-02-22T21:09:50;100637.69;;;6.92;100.00
35553;BME280;21656;46.054;13.614;2023-02-22T21:12:16;100630.41;;;6.80;100.00
35553;BME280;21656;46.054;13.614;2023-02-22T21:14:41;100636.34;;;6.85;100.00
35553;BME280;21656;46.054;13.614;2023-02-22T21:17:08;100641.63;;;6.87;100.00
35553;BME280;21656;46.054;13.614;2023-02-22T21:19:34;100635.56;;;6.69;100.00
35553;BME280;21656;46.054;13.614;2023-02-22T21:22:00;100627.84;;;6.79;100.00
35553;BME280;21656;46.054;13.614;2023-02-22T21:24:30;100633.47;;;6.74;100.00
35553;BME280;21656;46.054;13.614;2023-02-22T21:26:55;100626.28;;;6.60;100.00
35553;BME280;21656;46.054;13.614;2023-02-22T21:29:22;100631.84;;;6.71;100.00
35553;BME280;21656;46.054;13.614;2023-02-22T21:31:48;100637.19;;;6.71;100.00
35553;BME280;21656;46.054;13.614;2023-02-22T21:34:13;100629.53;;;6.65;100.00
35553;BME280;21656;46.054;13.614;2023-02-22T21:36:41;100628.47;;;6.68;100.00
35553;BME280;21656;46.054;13.614;2023-02-22T21:39:06;100632.31;;;6.64;100.00
35553;BME280;21656;46.054;13.614;2023-02-22T21:41:42;100629.44;;;6.67;100.00
35553;BME280;21656;46.054;13.614;2023-02-22T21:44:07;100633.78;;;6.84;100.00
35553;BME280;21656;46.054;13.614;2023-02-22T21:46:33;100626.19;;;6.62;100.00
35553;BME280;21656;46.054;13.614;2023-02-22T21:48:58;100623.66;;;6.44;100.00
35553;BME280;21656;46.054;13.614;2023-02-22T21:51:25;100618.88;;;6.35;100.00
35553;BME280;21656;46.054;13.614;2023-02-22T21:53:54;100624.63;;;6.43;100.00
35553;BME280;21656;46.054;13.614;2023-02-22T21:56:21;100619.69;;;6.51;100.00
35553;BME280;21656;46.054;13.614;2023-02-22T21:58:52;100616.22;;;6.49;100.00
35553;BME280;21656;46.054;13.614;2023-02-22T22:01:17;100614.53;;;6.63;100.00
35553;BME280;21656;46.054;13.614;2023-02-22T22:03:43;100615.00;;;6.55;100.00
35553;BME280;21656;46.054;13.614;2023-02-22T22:06:09;100611.38;;;6.56;100.00
35553;BME280;21656;46.054;13.614;2023-02-22T22:08:35;100609.81;;;6.52;100.00
35553;BME280;21656;46.054;13.614;2023-02-22T22:11:04;100604.88;;;6.60;100.00
35553;BME280;21656;46.054;13.614;2023-02-22T22:13:29;100607.34;;;6.49;100.00
35553;BME280;21656;46.054;13.614;2023-02-22T22:15:54;100608.00;;;6.38;100.00
35553;BME280;21656;46.054;13.614;2023-02-22T22:18:26;100608.00;;;6.38;100.00
35553;BME280;21656;46.054;13.614;2023-02-22T22:20:51;100605.44;;;6.51;100.00
35553;BME280;21656;46.054;13.614;2023-02-22T22:23:16;100602.78;;;6.51;100.00
35553;BME280;21656;46.054;13.614;2023-02-22T22:25:41;100608.78;;;6.55;100.00
35553;BME280;21656;46.054;13.614;2023-02-22T22:28:08;100601.84;;;6.66;100.00
35553;BME280;21656;46.054;13.614;2023-02-22T22:30:35;100605.06;;;6.57;100.00
35553;BME280;21656;46.054;13.614;2023-02-22T22:33:01;100599.31;;;6.49;100.00
35553;BME280;21656;46.054;13.614;2023-02-22T22:35:27;100602.69;;;6.67;100.00
35553;BME280;21656;46.054;13.614;2023-02-22T22:37:52;100604.78;;;6.62;100.00
35553;BME280;21656;46.054;13.614;2023-02-22T22:40:17;100598.28;;;6.66;100.00
35553;BME280;21656;46.054;13.614;2023-02-22T22:42:43;100604.28;;;6.55;100.00
35553;BME280;21656;46.054;13.614;2023-02-22T22:45:09;100600.63;;;6.42;100.00
35553;BME280;21656;46.054;13.614;2023-02-22T22:47:42;100594.13;;;6.32;100.00
35553;BME280;21656;46.054;13.614;2023-02-22T22:50:13;100593.47;;;6.28;100.00
35553;BME280;21656;46.054;13.614;2023-02-22T22:52:39;100590.78;;;6.28;100.00
35553;BME280;21656;46.054;13.614;2023-02-22T22:55:04;100597.94;;;6.27;100.00
35553;BME280;21656;46.054;13.614;2023-02-22T22:57:34;100598.88;;;6.26;100.00
35553;BME280;21656;46.054;13.614;2023-02-22T22:59:59;100601.06;;;6.20;100.00
35553;BME280;21656;46.054;13.614;2023-02-22T23:02:24;100597.06;;;6.27;100.00
35553;BME280;21656;46.054;13.614;2023-02-22T23:04:50;100598.81;;;6.28;100.00
35553;BME280;21656;46.054;13.614;2023-02-22T23:07:15;100588.13;;;6.42;100.00
35553;BME280;21656;46.054;13.614;2023-02-22T23:09:42;100595.84;;;6.33;100.00
35553;BME280;21656;46.054;13.614;2023-02-22T23:12:07;100592.75;;;6.24;100.00
35553;BME280;21656;46.054;13.614;2023-02-22T23:14:34;100589.44;;;6.21;100.00